sensor_id;sensor_type;location;lat;lon;timestamp;temperature;humidity
28271;DHT22;15527;0.000;0.000;2022-11-15T00:00:51;18.80;99.90
28271;DHT22;15527;0.000;0.000;2022-11-15T00:01:52;18.80;99.90
28271;DHT22;15527;0.000;0.000;2022-11-15T00:02:54;18.80;99.90
28271;DHT22;15527;0.000;0.000;2022-11-15T00:03:53;18.80;99.90
28271;DHT22;15527;0.000;0.000;2022-11-15T00:04:52;18.80;99.90
28271;DHT22;15527;0.000;0.000;2022-11-15T00:05:50;18.80;99.90
28271;DHT22;15527;0.000;0.000;2022-11-15T00:06:49;18.80;99.90
28271;DHT22;15527;0.000;0.000;2022-11-15T00:07:47;18.80;99.90
28271;DHT22;15527;0.000;0.000;2022-11-15T00:08:48;18.80;99.90
28271;DHT22;15527;0.000;0.000;2022-11-15T00:09:49;18.80;99.90
28271;DHT22;15527;0.000;0.000;2022-11-15T00:10:59;18.80;99.90
28271;DHT22;15527;0.000;0.000;2022-11-15T00:11:57;18.80;99.90
28271;DHT22;15527;0.000;0.000;2022-11-15T00:12:58;18.80;99.90
28271;DHT22;15527;0.000;0.000;2022-11-15T00:13:57;18.80;99.90
28271;DHT22;15527;0.000;0.000;2022-11-15T00:14:56;18.80;99.90
28271;DHT22;15527;0.000;0.000;2022-11-15T00:15:59;18.80;99.90
28271;DHT22;15527;0.000;0.000;2022-11-15T00:17:00;18.80;99.90
28271;DHT22;15527;0.000;0.000;2022-11-15T00:17:58;18.80;99.90
28271;DHT22;15527;0.000;0.000;2022-11-15T00:18:57;18.80;99.90
28271;DHT22;15527;0.000;0.000;2022-11-15T00:19:56;18.80;99.90
28271;DHT22;15527;0.000;0.000;2022-11-15T00:20:55;18.80;99.90
28271;DHT22;15527;0.000;0.000;2022-11-15T00:21:56;18.80;99.90
28271;DHT22;15527;0.000;0.000;2022-11-15T00:22:54;18.80;99.90
28271;DHT22;15527;0.000;0.000;2022-11-15T00:23:53;18.80;99.90
28271;DHT22;15527;0.000;0.000;2022-11-15T00:24:54;18.70;99.90
28271;DHT22;15527;0.000;0.000;2022-11-15T00:25:57;18.80;99.90
28271;DHT22;15527;0.000;0.000;2022-11-15T00:26:56;18.80;99.90
28271;DHT22;15527;0.000;0.000;2022-11-15T00:27:57;18.80;99.90
28271;DHT22;15527;0.000;0.000;2022-11-15T00:28:58;18.80;99.90
28271;DHT22;15527;0.000;0.000;2022-11-15T00:29:57;18.80;99.90
28271;DHT22;15527;0.000;0.000;2022-11-15T00:31:03;18.70;99.90
28271;DHT22;15527;0.000;0.000;2022-11-15T00:32:04;18.80;99.90
28271;DHT22;15527;0.000;0.000;2022-11-15T00:33:04;18.70;99.90
28271;DHT22;15527;0.000;0.000;2022-11-15T00:34:03;18.70;99.90
28271;DHT22;15527;0.000;0.000;2022-11-15T00:35:01;18.70;99.90
28271;DHT22;15527;0.000;0.000;2022-11-15T00:36:05;18.70;99.90
28271;DHT22;15527;0.000;0.000;2022-11-15T00:37:06;18.70;99.90
28271;DHT22;15527;0.000;0.000;2022-11-15T00:38:04;18.80;99.90
28271;DHT22;15527;0.000;0.000;2022-11-15T00:39:04;18.70;99.90
28271;DHT22;15527;0.000;0.000;2022-11-15T00:40:04;18.70;99.90
28271;DHT22;15527;0.000;0.000;2022-11-15T00:41:04;18.70;99.90
28271;DHT22;15527;0.000;0.000;2022-11-15T00:42:03;18.70;99.90
28271;DHT22;15527;0.000;0.000;2022-11-15T00:43:01;18.70;99.90
28271;DHT22;15527;0.000;0.000;2022-11-15T00:44:00;18.70;99.90
28271;DHT22;15527;0.000;0.000;2022-11-15T00:45:01;18.70;99.90
28271;DHT22;15527;0.000;0.000;2022-11-15T00:46:00;18.70;99.90
28271;DHT22;15527;0.000;0.000;2022-11-15T00:46:58;18.70;99.90
28271;DHT22;15527;0.000;0.000;2022-11-15T00:47:57;18.70;99.90
28271;DHT22;15527;0.000;0.000;2022-11-15T00:48:58;18.70;99.90
28271;DHT22;15527;0.000;0.000;2022-11-15T00:49:56;18.70;99.90
28271;DHT22;15527;0.000;0.000;2022-11-15T00:50:55;18.70;99.90
28271;DHT22;15527;0.000;0.000;2022-11-15T00:51:53;18.70;99.90
28271;DHT22;15527;0.000;0.000;2022-11-15T00:52:54;18.70;99.90
28271;DHT22;15527;0.000;0.000;2022-11-15T00:53:53;18.70;99.90
28271;DHT22;15527;0.000;0.000;2022-11-15T00:54:54;18.70;99.90
28271;DHT22;15527;0.000;0.000;2022-11-15T00:55:54;18.70;99.90
28271;DHT22;15527;0.000;0.000;2022-11-15T00:56:53;18.70;99.90
28271;DHT22;15527;0.000;0.000;2022-11-15T00:57:51;18.70;99.90
28271;DHT22;15527;0.000;0.000;2022-11-15T00:58:50;18.60;99.90
28271;DHT22;15527;0.000;0.000;2022-11-15T00:59:51;18.70;99.90
28271;DHT22;15527;0.000;0.000;2022-11-15T01:00:49;18.70;99.90
28271;DHT22;15527;0.000;0.000;2022-11-15T01:01:48;18.70;99.90
28271;DHT22;15527;0.000;0.000;2022-11-15T01:02:46;18.70;99.90
28271;DHT22;15527;0.000;0.000;2022-11-15T01:03:45;18.70;99.90
28271;DHT22;15527;0.000;0.000;2022-11-15T01:04:44;18.70;99.90
28271;DHT22;15527;0.000;0.000;2022-11-15T01:05:42;18.70;99.90
28271;DHT22;15527;0.000;0.000;2022-11-15T01:06:41;18.70;99.90
28271;DHT22;15527;0.000;0.000;2022-11-15T01:07:39;18.70;99.90
28271;DHT22;15527;0.000;0.000;2022-11-15T01:08:39;18.70;99.90
28271;DHT22;15527;0.000;0.000;2022-11-15T01:09:38;18.70;99.90
28271;DHT22;15527;0.000;0.000;2022-11-15T01:10:36;18.70;99.90
28271;DHT22;15527;0.000;0.000;2022-11-15T01:11:35;18.60;99.90
28271;DHT22;15527;0.000;0.000;2022-11-15T01:12:34;18.60;99.90
28271;DHT22;15527;0.000;0.000;2022-11-15T01:13:36;18.60;99.90
28271;DHT22;15527;0.000;0.000;2022-11-15T01:14:35;18.70;99.90
28271;DHT22;15527;0.000;0.000;2022-11-15T01:15:34;18.60;99.90
28271;DHT22;15527;0.000;0.000;2022-11-15T01:16:32;18.60;99.90
28271;DHT22;15527;0.000;0.000;2022-11-15T01:17:31;18.60;99.90
28271;DHT22;15527;0.000;0.000;2022-11-15T01:18:30;18.60;99.90
28271;DHT22;15527;0.000;0.000;2022-11-15T01:19:28;18.60;99.90
28271;DHT22;15527;0.000;0.000;2022-11-15T01:20:27;18.60;99.90
28271;DHT22;15527;0.000;0.000;2022-11-15T01:21:25;18.60;99.90
28271;DHT22;15527;0.000;0.000;2022-11-15T01:22:27;18.60;99.90
28271;DHT22;15527;0.000;0.000;2022-11-15T01:23:28;18.60;99.90
28271;DHT22;15527;0.000;0.000;2022-11-15T01:24:26;18.60;99.90
28271;DHT22;15527;0.000;0.000;2022-11-15T01:25:25;18.60;99.90
28271;DHT22;15527;0.000;0.000;2022-11-15T01:26:24;18.60;99.90
28271;DHT22;15527;0.000;0.000;2022-11-15T01:27:23;18.60;99.90
28271;DHT22;15527;0.000;0.000;2022-11-15T01:28:24;18.60;99.90
28271;DHT22;15527;0.000;0.000;2022-11-15T01:29:25;18.70;99.90
28271;DHT22;15527;0.000;0.000;2022-11-15T01:30:23;18.60;99.90
28271;DHT22;15527;0.000;0.000;2022-11-15T01:31:22;18.60;99.90
28271;DHT22;15527;0.000;0.000;2022-11-15T01:32:20;18.60;99.90
28271;DHT22;15527;0.000;0.000;2022-11-15T01:33:21;18.60;99.90
28271;DHT22;15527;0.000;0.000;2022-11-15T01:34:20;18.60;99.90
28271;DHT22;15527;0.000;0.000;2022-11-15T01:35:20;18.60;99.90
28271;DHT22;15527;0.000;0.000;2022-11-15T01:36:20;18.60;99.90
28271;DHT22;15527;0.000;0.000;2022-11-15T01:37:22;18.60;99.90
28271;DHT22;15527;0.000;0.000;2022-11-15T01:38:23;18.60;99.90
28271;DHT22;15527;0.000;0.000;2022-11-15T01:39:22;18.60;99.90
28271;DHT22;15527;0.000;0.000;2022-11-15T01:40:20;18.60;99.90
28271;DHT22;15527;0.000;0.000;2022-11-15T01:41:22;18.60;99.90
28271;DHT22;15527;0.000;0.000;2022-11-15T01:42:21;18.60;99.90
28271;DHT22;15527;0.000;0.000;2022-11-15T01:44:40;18.60;99.90
28271;DHT22;15527;0.000;0.000;2022-11-15T01:45:39;18.60;99.90
28271;DHT22;15527;0.000;0.000;2022-11-15T01:46:38;18.60;99.90
28271;DHT22;15527;0.000;0.000;2022-11-15T01:47:41;18.60;99.90
28271;DHT22;15527;0.000;0.000;2022-11-15T01:48:41;18.60;99.90
28271;DHT22;15527;0.000;0.000;2022-11-15T01:49:57;18.60;99.90
28271;DHT22;15527;0.000;0.000;2022-11-15T01:50:58;18.60;99.90
28271;DHT22;15527;0.000;0.000;2022-11-15T01:51:59;18.50;99.90
28271;DHT22;15527;0.000;0.000;2022-11-15T01:52:59;18.60;99.90
28271;DHT22;15527;0.000;0.000;2022-11-15T01:54:02;18.60;99.90
28271;DHT22;15527;0.000;0.000;2022-11-15T01:55:28;18.60;99.90
28271;DHT22;15527;0.000;0.000;2022-11-15T01:56:30;18.60;99.90
28271;DHT22;15527;0.000;0.000;2022-11-15T01:57:36;18.60;99.90
28271;DHT22;15527;0.000;0.000;2022-11-15T01:58:36;18.50;99.90
28271;DHT22;15527;0.000;0.000;2022-11-15T01:59:36;18.50;99.90
28271;DHT22;15527;0.000;0.000;2022-11-15T02:00:37;18.50;99.90
28271;DHT22;15527;0.000;0.000;2022-11-15T02:01:38;18.50;99.90
28271;DHT22;15527;0.000;0.000;2022-11-15T02:02:40;18.60;99.90
28271;DHT22;15527;0.000;0.000;2022-11-15T02:03:48;18.60;99.90
28271;DHT22;15527;0.000;0.000;2022-11-15T02:04:48;18.60;99.90
28271;DHT22;15527;0.000;0.000;2022-11-15T02:05:47;18.50;99.90
28271;DHT22;15527;0.000;0.000;2022-11-15T02:06:47;18.60;99.90
28271;DHT22;15527;0.000;0.000;2022-11-15T02:07:47;18.60;99.90
28271;DHT22;15527;0.000;0.000;2022-11-15T02:08:49;18.60;99.90
28271;DHT22;15527;0.000;0.000;2022-11-15T02:09:53;18.50;99.90
28271;DHT22;15527;0.000;0.000;2022-11-15T02:10:51;18.60;99.90
28271;DHT22;15527;0.000;0.000;2022-11-15T02:11:57;18.60;99.90
28271;DHT22;15527;0.000;0.000;2022-11-15T02:13:02;18.60;99.90
28271;DHT22;15527;0.000;0.000;2022-11-15T02:14:04;18.60;99.90
28271;DHT22;15527;0.000;0.000;2022-11-15T02:15:05;18.60;99.90
28271;DHT22;15527;0.000;0.000;2022-11-15T02:17:39;18.60;99.90
28271;DHT22;15527;0.000;0.000;2022-11-15T02:19:11;18.50;99.90
28271;DHT22;15527;0.000;0.000;2022-11-15T02:25:01;18.50;99.90
28271;DHT22;15527;0.000;0.000;2022-11-15T02:30:02;18.50;99.90
28271;DHT22;15527;0.000;0.000;2022-11-15T02:32:37;18.50;99.90
28271;DHT22;15527;0.000;0.000;2022-11-15T02:33:42;18.50;99.90
28271;DHT22;15527;0.000;0.000;2022-11-15T02:34:56;18.50;99.90
28271;DHT22;15527;0.000;0.000;2022-11-15T02:36:02;18.50;99.90
28271;DHT22;15527;0.000;0.000;2022-11-15T02:37:21;18.40;99.90
28271;DHT22;15527;0.000;0.000;2022-11-15T02:38:32;18.50;99.90
28271;DHT22;15527;0.000;0.000;2022-11-15T02:39:58;18.50;99.90
28271;DHT22;15527;0.000;0.000;2022-11-15T02:41:09;18.50;99.90
28271;DHT22;15527;0.000;0.000;2022-11-15T02:42:14;18.50;99.90
28271;DHT22;15527;0.000;0.000;2022-11-15T02:43:53;18.50;99.90
28271;DHT22;15527;0.000;0.000;2022-11-15T02:44:56;18.50;99.90
28271;DHT22;15527;0.000;0.000;2022-11-15T02:47:04;18.50;99.90
28271;DHT22;15527;0.000;0.000;2022-11-15T02:48:00;18.50;99.90
28271;DHT22;15527;0.000;0.000;2022-11-15T02:48:59;18.40;99.90
28271;DHT22;15527;0.000;0.000;2022-11-15T02:50:10;18.50;99.90
28271;DHT22;15527;0.000;0.000;2022-11-15T02:51:09;18.50;99.90
28271;DHT22;15527;0.000;0.000;2022-11-15T02:52:08;18.50;99.90
28271;DHT22;15527;0.000;0.000;2022-11-15T02:53:11;18.50;99.90
28271;DHT22;15527;0.000;0.000;2022-11-15T02:54:26;18.50;99.90
28271;DHT22;15527;0.000;0.000;2022-11-15T02:56:25;18.50;99.90
28271;DHT22;15527;0.000;0.000;2022-11-15T03:00:00;18.40;99.90
28271;DHT22;15527;0.000;0.000;2022-11-15T03:02:38;18.50;99.90
28271;DHT22;15527;0.000;0.000;2022-11-15T03:03:53;18.40;99.90
28271;DHT22;15527;0.000;0.000;2022-11-15T03:06:49;18.40;99.90
28271;DHT22;15527;0.000;0.000;2022-11-15T03:08:10;18.40;99.90
28271;DHT22;15527;0.000;0.000;2022-11-15T03:09:42;18.40;99.90
28271;DHT22;15527;0.000;0.000;2022-11-15T03:12:52;18.40;99.90
28271;DHT22;15527;0.000;0.000;2022-11-15T03:14:47;18.40;99.90
28271;DHT22;15527;0.000;0.000;2022-11-15T03:16:09;18.40;99.90
28271;DHT22;15527;0.000;0.000;2022-11-15T03:17:16;18.40;99.90
28271;DHT22;15527;0.000;0.000;2022-11-15T03:18:23;18.40;99.90
28271;DHT22;15527;0.000;0.000;2022-11-15T03:19:44;18.40;99.90
28271;DHT22;15527;0.000;0.000;2022-11-15T03:20:46;18.40;99.90
28271;DHT22;15527;0.000;0.000;2022-11-15T03:21:49;18.40;99.90
28271;DHT22;15527;0.000;0.000;2022-11-15T03:22:49;18.40;99.90
28271;DHT22;15527;0.000;0.000;2022-11-15T03:23:49;18.50;99.90
28271;DHT22;15527;0.000;0.000;2022-11-15T03:24:57;18.40;99.90
28271;DHT22;15527;0.000;0.000;2022-11-15T03:26:00;18.40;99.90
28271;DHT22;15527;0.000;0.000;2022-11-15T03:27:00;18.40;99.90
28271;DHT22;15527;0.000;0.000;2022-11-15T03:28:03;18.40;99.90
28271;DHT22;15527;0.000;0.000;2022-11-15T03:29:11;18.50;99.90
28271;DHT22;15527;0.000;0.000;2022-11-15T03:30:14;18.40;99.90
28271;DHT22;15527;0.000;0.000;2022-11-15T03:31:15;18.40;99.90
28271;DHT22;15527;0.000;0.000;2022-11-15T03:32:37;18.40;99.90
28271;DHT22;15527;0.000;0.000;2022-11-15T03:33:37;18.40;99.90
28271;DHT22;15527;0.000;0.000;2022-11-15T03:36:01;18.40;99.90
28271;DHT22;15527;0.000;0.000;2022-11-15T03:37:01;18.40;99.90
28271;DHT22;15527;0.000;0.000;2022-11-15T03:39:12;18.40;99.90
28271;DHT22;15527;0.000;0.000;2022-11-15T03:40:11;18.40;99.90
28271;DHT22;15527;0.000;0.000;2022-11-15T03:41:21;18.40;99.90
28271;DHT22;15527;0.000;0.000;2022-11-15T03:42:32;18.40;99.90
28271;DHT22;15527;0.000;0.000;2022-11-15T03:45:13;18.40;99.90
28271;DHT22;15527;0.000;0.000;2022-11-15T03:46:17;18.40;99.90
28271;DHT22;15527;0.000;0.000;2022-11-15T03:47:27;18.40;99.90
28271;DHT22;15527;0.000;0.000;2022-11-15T03:48:34;18.40;99.90
28271;DHT22;15527;0.000;0.000;2022-11-15T03:49:38;18.40;99.90
28271;DHT22;15527;0.000;0.000;2022-11-15T03:50:37;18.40;99.90
28271;DHT22;15527;0.000;0.000;2022-11-15T03:51:38;18.40;99.90
28271;DHT22;15527;0.000;0.000;2022-11-15T03:52:40;18.40;99.90
28271;DHT22;15527;0.000;0.000;2022-11-15T03:53:40;18.40;99.90
28271;DHT22;15527;0.000;0.000;2022-11-15T03:54:54;18.40;99.90
28271;DHT22;15527;0.000;0.000;2022-11-15T03:55:52;18.40;99.90
28271;DHT22;15527;0.000;0.000;2022-11-15T03:56:53;18.40;99.90
28271;DHT22;15527;0.000;0.000;2022-11-15T03:57:57;18.40;99.90
28271;DHT22;15527;0.000;0.000;2022-11-15T03:58:57;18.40;99.90
28271;DHT22;15527;0.000;0.000;2022-11-15T03:59:57;18.40;99.90
28271;DHT22;15527;0.000;0.000;2022-11-15T04:00:58;18.40;99.90
28271;DHT22;15527;0.000;0.000;2022-11-15T04:01:59;18.40;99.90
28271;DHT22;15527;0.000;0.000;2022-11-15T04:02:57;18.40;99.90
28271;DHT22;15527;0.000;0.000;2022-11-15T04:03:56;18.40;99.90
28271;DHT22;15527;0.000;0.000;2022-11-15T04:04:57;18.40;99.90
28271;DHT22;15527;0.000;0.000;2022-11-15T04:05:56;18.40;99.90
28271;DHT22;15527;0.000;0.000;2022-11-15T04:06:56;18.40;99.90
28271;DHT22;15527;0.000;0.000;2022-11-15T04:07:57;18.40;99.90
28271;DHT22;15527;0.000;0.000;2022-11-15T04:08:56;18.40;99.90
28271;DHT22;15527;0.000;0.000;2022-11-15T04:09:55;18.40;99.90
28271;DHT22;15527;0.000;0.000;2022-11-15T04:11:03;18.40;99.90
28271;DHT22;15527;0.000;0.000;2022-11-15T04:12:02;18.40;99.90
28271;DHT22;15527;0.000;0.000;2022-11-15T04:13:03;18.40;99.90
28271;DHT22;15527;0.000;0.000;2022-11-15T04:14:01;18.40;99.90
28271;DHT22;15527;0.000;0.000;2022-11-15T04:15:04;18.40;99.90
28271;DHT22;15527;0.000;0.000;2022-11-15T04:16:06;18.40;99.90
28271;DHT22;15527;0.000;0.000;2022-11-15T04:17:05;18.40;99.90
28271;DHT22;15527;0.000;0.000;2022-11-15T04:18:03;18.40;99.90
28271;DHT22;15527;0.000;0.000;2022-11-15T04:19:02;18.40;99.90
28271;DHT22;15527;0.000;0.000;2022-11-15T04:21:36;18.30;99.90
28271;DHT22;15527;0.000;0.000;2022-11-15T04:22:58;18.30;99.90
28271;DHT22;15527;0.000;0.000;2022-11-15T04:24:16;18.40;99.90
28271;DHT22;15527;0.000;0.000;2022-11-15T04:25:17;18.30;99.90
28271;DHT22;15527;0.000;0.000;2022-11-15T04:26:21;18.30;99.90
28271;DHT22;15527;0.000;0.000;2022-11-15T04:27:20;18.30;99.90
28271;DHT22;15527;0.000;0.000;2022-11-15T04:28:19;18.30;99.90
28271;DHT22;15527;0.000;0.000;2022-11-15T04:29:18;18.30;99.90
28271;DHT22;15527;0.000;0.000;2022-11-15T04:30:35;18.30;99.90
28271;DHT22;15527;0.000;0.000;2022-11-15T04:31:35;18.30;99.90
28271;DHT22;15527;0.000;0.000;2022-11-15T04:32:38;18.30;99.90
28271;DHT22;15527;0.000;0.000;2022-11-15T04:33:39;18.30;99.90
28271;DHT22;15527;0.000;0.000;2022-11-15T04:34:38;18.30;99.90
28271;DHT22;15527;0.000;0.000;2022-11-15T04:35:37;18.30;99.90
28271;DHT22;15527;0.000;0.000;2022-11-15T04:36:38;18.40;99.90
28271;DHT22;15527;0.000;0.000;2022-11-15T04:38:04;18.30;99.90
28271;DHT22;15527;0.000;0.000;2022-11-15T04:39:06;18.30;99.90
28271;DHT22;15527;0.000;0.000;2022-11-15T04:40:07;18.30;99.90
28271;DHT22;15527;0.000;0.000;2022-11-15T04:41:06;18.30;99.90
28271;DHT22;15527;0.000;0.000;2022-11-15T04:42:09;18.40;99.90
28271;DHT22;15527;0.000;0.000;2022-11-15T04:43:08;18.40;99.90
28271;DHT22;15527;0.000;0.000;2022-11-15T04:44:07;18.30;99.90
28271;DHT22;15527;0.000;0.000;2022-11-15T04:45:06;18.30;99.90
28271;DHT22;15527;0.000;0.000;2022-11-15T04:46:09;18.30;99.90
28271;DHT22;15527;0.000;0.000;2022-11-15T04:47:07;18.30;99.90
28271;DHT22;15527;0.000;0.000;2022-11-15T04:48:11;18.30;99.90
28271;DHT22;15527;0.000;0.000;2022-11-15T04:49:09;18.30;99.90
28271;DHT22;15527;0.000;0.000;2022-11-15T04:50:08;18.30;99.90
28271;DHT22;15527;0.000;0.000;2022-11-15T04:51:09;18.30;99.90
28271;DHT22;15527;0.000;0.000;2022-11-15T04:52:10;18.30;99.90
28271;DHT22;15527;0.000;0.000;2022-11-15T04:53:11;18.40;99.90
28271;DHT22;15527;0.000;0.000;2022-11-15T04:54:09;18.30;99.90
28271;DHT22;15527;0.000;0.000;2022-11-15T04:55:12;18.40;99.90
28271;DHT22;15527;0.000;0.000;2022-11-15T04:56:11;18.40;99.90
28271;DHT22;15527;0.000;0.000;2022-11-15T04:57:10;18.40;99.90
28271;DHT22;15527;0.000;0.000;2022-11-15T04:58:11;18.30;99.90
28271;DHT22;15527;0.000;0.000;2022-11-15T04:59:09;18.30;99.90
28271;DHT22;15527;0.000;0.000;2022-11-15T05:00:11;18.30;99.90
28271;DHT22;15527;0.000;0.000;2022-11-15T05:01:14;18.30;99.90
28271;DHT22;15527;0.000;0.000;2022-11-15T05:02:12;18.30;99.90
28271;DHT22;15527;0.000;0.000;2022-11-15T05:03:11;18.30;99.90
28271;DHT22;15527;0.000;0.000;2022-11-15T05:04:28;18.30;99.90
28271;DHT22;15527;0.000;0.000;2022-11-15T05:05:29;18.30;99.90
28271;DHT22;15527;0.000;0.000;2022-11-15T05:06:28;18.30;99.90
28271;DHT22;15527;0.000;0.000;2022-11-15T05:07:27;18.30;99.90
28271;DHT22;15527;0.000;0.000;2022-11-15T05:08:25;18.30;99.90
28271;DHT22;15527;0.000;0.000;2022-11-15T05:09:24;18.30;99.90
28271;DHT22;15527;0.000;0.000;2022-11-15T05:10:25;18.30;99.90
28271;DHT22;15527;0.000;0.000;2022-11-15T05:11:24;18.30;99.90
28271;DHT22;15527;0.000;0.000;2022-11-15T05:12:25;18.30;99.90
28271;DHT22;15527;0.000;0.000;2022-11-15T05:13:23;18.30;99.90
28271;DHT22;15527;0.000;0.000;2022-11-15T05:14:22;18.30;99.90
28271;DHT22;15527;0.000;0.000;2022-11-15T05:15:21;18.30;99.90
28271;DHT22;15527;0.000;0.000;2022-11-15T05:16:22;18.30;99.90
28271;DHT22;15527;0.000;0.000;2022-11-15T05:17:23;18.30;99.90
28271;DHT22;15527;0.000;0.000;2022-11-15T05:18:21;18.30;99.90
28271;DHT22;15527;0.000;0.000;2022-11-15T05:19:20;18.30;99.90
28271;DHT22;15527;0.000;0.000;2022-11-15T05:20:21;18.30;99.90
28271;DHT22;15527;0.000;0.000;2022-11-15T05:21:20;18.30;99.90
28271;DHT22;15527;0.000;0.000;2022-11-15T05:22:21;18.30;99.90
28271;DHT22;15527;0.000;0.000;2022-11-15T05:23:20;18.30;99.90
28271;DHT22;15527;0.000;0.000;2022-11-15T05:24:18;18.30;99.90
28271;DHT22;15527;0.000;0.000;2022-11-15T05:25:19;18.30;99.90
28271;DHT22;15527;0.000;0.000;2022-11-15T05:26:18;18.30;99.90
28271;DHT22;15527;0.000;0.000;2022-11-15T05:27:17;18.30;99.90
28271;DHT22;15527;0.000;0.000;2022-11-15T05:28:18;18.30;99.90
28271;DHT22;15527;0.000;0.000;2022-11-15T05:29:16;18.30;99.90
28271;DHT22;15527;0.000;0.000;2022-11-15T05:30:16;18.30;99.90
28271;DHT22;15527;0.000;0.000;2022-11-15T05:31:15;18.30;99.90
28271;DHT22;15527;0.000;0.000;2022-11-15T05:32:16;18.30;99.90
28271;DHT22;15527;0.000;0.000;2022-11-15T05:33:18;18.30;99.90
28271;DHT22;15527;0.000;0.000;2022-11-15T05:34:17;18.30;99.90
28271;DHT22;15527;0.000;0.000;2022-11-15T05:35:38;18.30;99.90
28271;DHT22;15527;0.000;0.000;2022-11-15T05:36:41;18.30;99.90
28271;DHT22;15527;0.000;0.000;2022-11-15T05:37:40;18.30;99.90
28271;DHT22;15527;0.000;0.000;2022-11-15T05:38:39;18.30;99.90
28271;DHT22;15527;0.000;0.000;2022-11-15T05:39:40;18.30;99.90
28271;DHT22;15527;0.000;0.000;2022-11-15T05:40:39;18.30;99.90
28271;DHT22;15527;0.000;0.000;2022-11-15T05:41:43;18.30;99.90
28271;DHT22;15527;0.000;0.000;2022-11-15T05:42:47;18.30;99.90
28271;DHT22;15527;0.000;0.000;2022-11-15T05:43:48;18.30;99.90
28271;DHT22;15527;0.000;0.000;2022-11-15T05:44:48;18.30;99.90
28271;DHT22;15527;0.000;0.000;2022-11-15T05:45:47;18.30;99.90
28271;DHT22;15527;0.000;0.000;2022-11-15T05:46:48;18.30;99.90
28271;DHT22;15527;0.000;0.000;2022-11-15T05:47:48;18.30;99.90
28271;DHT22;15527;0.000;0.000;2022-11-15T05:48:50;18.30;99.90
28271;DHT22;15527;0.000;0.000;2022-11-15T05:49:51;18.30;99.90
28271;DHT22;15527;0.000;0.000;2022-11-15T05:50:51;18.30;99.90
28271;DHT22;15527;0.000;0.000;2022-11-15T05:51:50;18.30;99.90
28271;DHT22;15527;0.000;0.000;2022-11-15T05:52:54;18.30;99.90
28271;DHT22;15527;0.000;0.000;2022-11-15T05:53:56;18.30;99.90
28271;DHT22;15527;0.000;0.000;2022-11-15T05:54:59;18.30;99.90
28271;DHT22;15527;0.000;0.000;2022-11-15T05:55:57;18.30;99.90
28271;DHT22;15527;0.000;0.000;2022-11-15T05:56:56;18.30;99.90
28271;DHT22;15527;0.000;0.000;2022-11-15T05:57:57;18.30;99.90
28271;DHT22;15527;0.000;0.000;2022-11-15T05:58:56;18.30;99.90
28271;DHT22;15527;0.000;0.000;2022-11-15T05:59:58;18.30;99.90
28271;DHT22;15527;0.000;0.000;2022-11-15T06:00:56;18.30;99.90
28271;DHT22;15527;0.000;0.000;2022-11-15T06:01:57;18.30;99.90
28271;DHT22;15527;0.000;0.000;2022-11-15T06:02:56;18.30;99.90
28271;DHT22;15527;0.000;0.000;2022-11-15T06:03:54;18.30;99.90
28271;DHT22;15527;0.000;0.000;2022-11-15T06:04:55;18.30;99.90
28271;DHT22;15527;0.000;0.000;2022-11-15T06:05:56;18.30;99.90
28271;DHT22;15527;0.000;0.000;2022-11-15T06:06:57;18.30;99.90
28271;DHT22;15527;0.000;0.000;2022-11-15T06:07:59;18.30;99.90
28271;DHT22;15527;0.000;0.000;2022-11-15T06:08:58;18.30;99.90
28271;DHT22;15527;0.000;0.000;2022-11-15T06:09:59;18.30;99.90
28271;DHT22;15527;0.000;0.000;2022-11-15T06:11:05;18.30;99.90
28271;DHT22;15527;0.000;0.000;2022-11-15T06:12:04;18.30;99.90
28271;DHT22;15527;0.000;0.000;2022-11-15T06:13:04;18.30;99.90
28271;DHT22;15527;0.000;0.000;2022-11-15T06:14:05;18.30;99.90
28271;DHT22;15527;0.000;0.000;2022-11-15T06:15:04;18.30;99.90
28271;DHT22;15527;0.000;0.000;2022-11-15T06:16:02;18.30;99.90
28271;DHT22;15527;0.000;0.000;2022-11-15T06:17:04;18.30;99.90
28271;DHT22;15527;0.000;0.000;2022-11-15T06:18:02;18.30;99.90
28271;DHT22;15527;0.000;0.000;2022-11-15T06:19:03;18.30;99.90
28271;DHT22;15527;0.000;0.000;2022-11-15T06:20:06;18.30;99.90
28271;DHT22;15527;0.000;0.000;2022-11-15T06:21:05;18.30;99.90
28271;DHT22;15527;0.000;0.000;2022-11-15T06:22:04;18.30;99.90
28271;DHT22;15527;0.000;0.000;2022-11-15T06:23:04;18.20;99.90
28271;DHT22;15527;0.000;0.000;2022-11-15T06:24:03;18.30;99.90
28271;DHT22;15527;0.000;0.000;2022-11-15T06:25:03;18.30;99.90
28271;DHT22;15527;0.000;0.000;2022-11-15T06:26:02;18.30;99.90
28271;DHT22;15527;0.000;0.000;2022-11-15T06:27:03;18.30;99.90
28271;DHT22;15527;0.000;0.000;2022-11-15T06:28:02;18.30;99.90
28271;DHT22;15527;0.000;0.000;2022-11-15T06:29:04;18.30;99.90
28271;DHT22;15527;0.000;0.000;2022-11-15T06:30:03;18.30;99.90
28271;DHT22;15527;0.000;0.000;2022-11-15T06:31:07;18.30;99.90
28271;DHT22;15527;0.000;0.000;2022-11-15T06:32:06;18.40;99.90
28271;DHT22;15527;0.000;0.000;2022-11-15T06:33:07;18.30;99.90
28271;DHT22;15527;0.000;0.000;2022-11-15T06:34:09;18.30;99.90
28271;DHT22;15527;0.000;0.000;2022-11-15T06:35:07;18.40;99.90
28271;DHT22;15527;0.000;0.000;2022-11-15T06:36:10;18.30;99.90
28271;DHT22;15527;0.000;0.000;2022-11-15T06:37:14;18.40;99.90
28271;DHT22;15527;0.000;0.000;2022-11-15T06:38:13;18.40;99.90
28271;DHT22;15527;0.000;0.000;2022-11-15T06:39:11;18.40;99.90
28271;DHT22;15527;0.000;0.000;2022-11-15T06:40:10;18.40;99.90
28271;DHT22;15527;0.000;0.000;2022-11-15T06:41:13;18.40;99.90
28271;DHT22;15527;0.000;0.000;2022-11-15T06:42:11;18.40;99.90
28271;DHT22;15527;0.000;0.000;2022-11-15T06:43:10;18.40;99.90
28271;DHT22;15527;0.000;0.000;2022-11-15T06:44:09;18.40;99.90
28271;DHT22;15527;0.000;0.000;2022-11-15T06:45:07;18.40;99.90
28271;DHT22;15527;0.000;0.000;2022-11-15T06:46:09;18.40;99.90
28271;DHT22;15527;0.000;0.000;2022-11-15T06:47:07;18.40;99.90
28271;DHT22;15527;0.000;0.000;2022-11-15T06:48:06;18.40;99.90
28271;DHT22;15527;0.000;0.000;2022-11-15T06:49:07;18.40;99.90
28271;DHT22;15527;0.000;0.000;2022-11-15T06:50:06;18.40;99.90
28271;DHT22;15527;0.000;0.000;2022-11-15T06:51:05;18.40;99.90
28271;DHT22;15527;0.000;0.000;2022-11-15T06:52:04;18.40;99.90
28271;DHT22;15527;0.000;0.000;2022-11-15T06:53:07;18.40;99.90
28271;DHT22;15527;0.000;0.000;2022-11-15T06:54:06;18.40;99.90
28271;DHT22;15527;0.000;0.000;2022-11-15T06:55:05;18.40;99.90
28271;DHT22;15527;0.000;0.000;2022-11-15T06:56:05;18.40;99.90
28271;DHT22;15527;0.000;0.000;2022-11-15T06:57:07;18.40;99.90
28271;DHT22;15527;0.000;0.000;2022-11-15T06:58:05;18.40;99.90
28271;DHT22;15527;0.000;0.000;2022-11-15T06:59:07;18.40;99.90
28271;DHT22;15527;0.000;0.000;2022-11-15T07:00:06;18.40;99.90
28271;DHT22;15527;0.000;0.000;2022-11-15T07:01:07;18.30;99.90
28271;DHT22;15527;0.000;0.000;2022-11-15T07:02:10;18.30;99.90
28271;DHT22;15527;0.000;0.000;2022-11-15T07:03:09;18.10;99.90
28271;DHT22;15527;0.000;0.000;2022-11-15T07:04:08;18.00;99.90
28271;DHT22;15527;0.000;0.000;2022-11-15T07:05:07;17.90;99.90
28271;DHT22;15527;0.000;0.000;2022-11-15T07:06:10;17.80;99.90